Time;durP1;ratioP1;P1;durP2;ratioP2;P2;SDS_P1;SDS_P2;PMS_P1;PMS_P2;Temp;Humidity;BMP_temperature;BMP_pressure;BME280_temperature;BME280_humidity;BME280_pressure;Samples;Min_cycle;Max_cycle;Signal;HPM_P1;HPM_P2
2022/04/02 00:01:47;;;;;;;0.80;0.10;;;24.10;94.10;;;;;;4984674;28;20471;-79
2022/04/02 00:04:17;;;;;;;0.82;0.20;;;24.90;94.10;;;;;;4980537;28;20053;-74
2022/04/02 00:06:46;;;;;;;0.70;0.00;;;25.90;92.90;;;;;;4970776;28;20027;-76
2022/04/02 00:09:13;;;;;;;0.30;0.00;;;26.20;92.50;;;;;;4979825;28;20026;-78
2022/04/02 00:11:40;;;;;;;0.75;0.10;;;26.20;92.20;;;;;;4983819;28;20027;-76
2022/04/02 00:14:08;;;;;;;0.68;0.10;;;26.30;92.10;;;;;;4982894;28;20054;-79
2022/04/02 00:16:35;;;;;;;0.65;0.10;;;26.20;91.90;;;;;;4979334;28;20515;-76
2022/04/02 00:19:03;;;;;;;1.35;0.17;;;26.10;92.20;;;;;;4973291;28;20051;-78
2022/04/02 00:21:30;;;;;;;0.05;0.00;;;26.60;91.80;;;;;;4989383;28;20034;-80
2022/04/02 00:23:57;;;;;;;0.25;0.10;;;26.60;91.40;;;;;;4994976;28;20046;-74
2022/04/02 00:26:25;;;;;;;0.65;0.10;;;26.10;91.30;;;;;;4990030;28;20477;-76
2022/04/02 00:28:53;;;;;;;0.10;0.00;;;25.80;91.50;;;;;;4973973;28;20038;-83
2022/04/02 00:31:22;;;;;;;0.43;0.20;;;25.40;92.50;;;;;;4972288;28;20515;-76
2022/04/02 00:33:50;;;;;;;1.15;0.20;;;25.30;92.60;;;;;;4980208;28;20042;-78
2022/04/02 00:36:21;;;;;;;0.50;0.05;;;25.80;92.50;;;;;;4978728;28;20015;-76
2022/04/02 00:38:49;;;;;;;1.10;0.10;;;26.30;91.60;;;;;;4975418;28;20045;-76
2022/04/02 00:41:17;;;;;;;0.93;0.20;;;26.50;91.80;;;;;;4978093;28;20023;-76
2022/04/02 00:44:12;;;;;;;0.10;0.00;;;26.50;91.20;;;;;;4982367;28;20031;-77
2022/04/02 00:46:42;;;;;;;0.30;0.00;;;26.40;91.60;;;;;;4977414;28;20026;-77
2022/04/02 00:49:11;;;;;;;0.52;0.10;;;26.90;91.70;;;;;;4996852;28;20657;-76
2022/04/02 00:51:43;;;;;;;1.35;0.10;;;27.50;91.70;;;;;;4978354;28;20905;-73
2022/04/02 00:54:14;;;;;;;0.35;0.30;;;27.70;91.30;;;;;;4980480;28;20388;-74
2022/04/02 00:56:43;;;;;;;1.20;0.80;;;27.50;90.80;;;;;;4978629;28;20035;-75
2022/04/02 00:59:12;;;;;;;2.95;0.10;;;27.40;90.00;;;;;;4979272;28;20070;-75
2022/04/02 01:01:40;;;;;;;0.68;0.00;;;27.10;90.30;;;;;;4977585;28;20030;-76
2022/04/02 01:04:07;;;;;;;0.70;0.00;;;27.60;91.10;;;;;;4992972;28;20105;-75
2022/04/02 01:06:35;;;;;;;0.08;0.00;;;27.60;90.60;;;;;;4993313;28;20101;-77
2022/04/02 01:09:03;;;;;;;0.40;0.00;;;27.40;90.40;;;;;;4979016;28;20038;-76
2022/04/02 01:11:42;;;;;;;1.08;0.10;;;27.40;91.00;;;;;;4974936;28;20054;-75
2022/04/02 01:14:10;;;;;;;0.00;0.00;;;27.20;90.30;;;;;;4989821;28;20026;-75
2022/04/02 01:16:38;;;;;;;0.00;0.00;;;26.70;90.30;;;;;;4992624;28;20059;-75
2022/04/02 01:19:06;;;;;;;0.75;0.00;;;26.40;90.50;;;;;;4985275;28;20046;-74
2022/04/02 01:21:36;;;;;;;0.40;0.10;;;26.20;90.60;;;;;;4975452;28;20030;-76
2022/04/02 01:24:04;;;;;;;0.00;0.00;;;26.20;90.90;;;;;;4984588;28;20082;-75
2022/04/02 01:26:32;;;;;;;0.57;0.10;;;26.70;90.80;;;;;;4988213;28;20764;-74
2022/04/02 01:29:01;;;;;;;0.25;0.20;;;26.70;90.20;;;;;;4987858;28;20122;-75
2022/04/02 01:31:28;;;;;;;0.00;0.00;;;27.00;90.30;;;;;;4977705;28;20047;-74
2022/04/02 01:33:56;;;;;;;0.15;0.00;;;27.00;90.90;;;;;;4989189;28;20030;-76
2022/04/02 01:36:24;;;;;;;0.40;0.00;;;27.00;90.50;;;;;;4979018;28;20054;-74
2022/04/02 01:38:52;;;;;;;0.10;0.00;;;26.80;89.40;;;;;;4991793;28;20045;-72
2022/04/02 01:41:19;;;;;;;0.35;0.00;;;26.30;90.00;;;;;;4989329;28;20404;-74
2022/04/02 01:43:49;;;;;;;0.10;0.00;;;25.80;90.60;;;;;;4975236;28;20506;-74
2022/04/02 01:46:17;;;;;;;1.45;0.20;;;25.40;91.30;;;;;;4991511;28;20038;-74
2022/04/02 01:48:45;;;;;;;0.47;0.10;;;24.90;91.40;;;;;;4987836;28;20035;-74
2022/04/02 01:51:13;;;;;;;0.40;0.00;;;24.70;92.00;;;;;;4974995;28;20457;-73
2022/04/02 01:53:40;;;;;;;0.00;0.00;;;24.50;92.20;;;;;;4987359;28;20096;-74
2022/04/02 01:56:11;;;;;;;0.17;0.00;;;24.40;92.30;;;;;;4982617;28;20534;-74
2022/04/02 01:58:39;;;;;;;0.20;0.00;;;24.70;92.30;;;;;;4979097;28;20045;-74
2022/04/02 02:01:08;;;;;;;0.00;0.00;;;25.10;92.00;;;;;;4987763;28;20109;-74
2022/04/02 02:03:35;;;;;;;0.35;0.10;;;25.30;92.50;;;;;;4983336;28;20121;-76
2022/04/02 02:06:03;;;;;;;0.08;0.00;;;25.50;92.10;;;;;;4993707;28;20084;-72
2022/04/02 02:08:31;;;;;;;0.03;0.00;;;25.50;91.70;;;;;;4989026;28;20100;-74
2022/04/02 02:10:58;;;;;;;0.47;0.15;;;25.50;92.40;;;;;;4975177;28;20213;-73
2022/04/02 02:13:26;;;;;;;0.77;0.20;;;25.50;91.60;;;;;;4983643;28;20121;-72
2022/04/02 02:15:53;;;;;;;0.95;0.20;;;25.50;91.30;;;;;;4973724;28;20551;-73
2022/04/02 02:18:20;;;;;;;0.10;0.00;;;25.30;91.20;;;;;;4973604;28;20470;-73
2022/04/02 02:20:48;;;;;;;0.32;0.00;;;25.20;91.80;;;;;;4980724;28;20027;-73
2022/04/02 02:23:15;;;;;;;0.28;0.10;;;25.90;91.90;;;;;;4975002;28;20030;-76
2022/04/02 02:25:43;;;;;;;0.00;0.00;;;26.00;91.20;;;;;;4972272;28;20496;-74
2022/04/02 02:28:10;;;;;;;0.00;0.00;;;25.90;91.30;;;;;;4975543;28;20125;-73
2022/04/02 02:30:37;;;;;;;0.00;0.00;;;26.00;90.80;;;;;;4976213;28;20503;-74
2022/04/02 02:35:50;;;;;;;2.03;0.10;;;25.90;91.60;;;;;;4977702;28;20030;-73
2022/04/02 02:38:21;;;;;;;0.00;0.00;;;26.00;90.70;;;;;;4971741;28;20307;-74
2022/04/02 02:40:50;;;;;;;0.20;0.10;;;25.90;91.40;;;;;;4974414;28;20050;-74
2022/04/02 02:43:17;;;;;;;0.15;0.10;;;26.10;91.00;;;;;;4978047;28;20065;-74
2022/04/02 02:45:45;;;;;;;0.75;0.00;;;26.70;90.50;;;;;;4991050;28;20027;-74
2022/04/02 02:48:13;;;;;;;1.02;0.00;;;27.10;91.60;;;;;;4985524;28;20026;-74
2022/04/02 02:50:42;;;;;;;0.85;0.30;;;27.20;90.70;;;;;;4973938;28;20034;-73
2022/04/02 02:53:10;;;;;;;0.00;0.00;;;27.30;90.60;;;;;;4977526;28;20031;-75
2022/04/02 02:55:39;;;;;;;0.13;0.00;;;27.10;89.40;;;;;;4986570;28;20361;-74
2022/04/02 02:58:08;;;;;;;0.30;0.00;;;27.10;90.80;;;;;;4988675;28;20113;-75
2022/04/02 03:00:35;;;;;;;0.38;0.10;;;26.80;90.70;;;;;;4975706;28;20043;-75
2022/04/02 03:03:03;;;;;;;0.10;0.08;;;26.40;90.60;;;;;;4975666;28;20371;-73
2022/04/02 03:05:31;;;;;;;0.15;0.10;;;26.10;90.80;;;;;;4972315;28;20035;-75
2022/04/02 03:07:58;;;;;;;0.45;0.05;;;25.80;90.40;;;;;;4975669;28;20804;-73
2022/04/02 03:10:30;;;;;;;0.05;0.00;;;25.50;91.60;;;;;;4971802;28;20031;-75
2022/04/02 03:12:59;;;;;;;0.10;0.00;;;25.30;91.40;;;;;;4977864;28;20023;-74
2022/04/02 03:15:27;;;;;;;0.08;0.00;;;25.30;91.50;;;;;;4975337;28;20033;-75
2022/04/02 03:18:01;;;;;;;0.00;0.00;;;25.30;92.10;;;;;;4977475;28;20108;-75
2022/04/02 03:20:29;;;;;;;0.00;0.00;;;25.30;91.20;;;;;;4979990;28;20047;-73
2022/04/02 03:22:56;;;;;;;0.20;0.00;;;25.20;91.50;;;;;;4978579;28;20030;-74
2022/04/02 03:25:23;;;;;;;0.00;0.00;;;25.00;91.60;;;;;;4983689;28;23200;-75
2022/04/02 03:27:51;;;;;;;1.25;0.10;;;24.90;91.90;;;;;;4975736;28;20458;-75
2022/04/02 03:30:21;;;;;;;0.20;0.20;;;24.80;92.20;;;;;;4972711;28;20037;-73
2022/04/02 03:32:49;;;;;;;0.03;0.00;;;24.90;92.20;;;;;;4973822;28;20058;-76
2022/04/02 03:35:18;;;;;;;0.57;0.00;;;24.90;91.80;;;;;;4982578;28;20094;-73
2022/04/02 03:37:48;;;;;;;1.55;0.10;;;24.80;91.70;;;;;;4973667;28;20043;-74
2022/04/02 03:40:22;;;;;;;0.10;0.00;;;24.60;91.70;;;;;;4978818;28;20042;-74
2022/04/02 03:42:50;;;;;;;0.00;0.00;;;24.80;91.90;;;;;;4968133;28;20381;-75
2022/04/02 03:45:20;;;;;;;0.10;0.00;;;25.00;91.60;;;;;;4974101;28;20428;-72
2022/04/02 03:47:48;;;;;;;0.30;0.00;;;25.00;91.70;;;;;;4974278;28;20101;-74
2022/04/02 03:50:16;;;;;;;3.03;0.00;;;25.10;91.10;;;;;;4975031;28;20562;-73
2022/04/02 03:52:43;;;;;;;0.00;0.00;;;25.10;91.80;;;;;;4979714;28;20042;-75
2022/04/02 03:55:11;;;;;;;0.30;0.00;;;25.30;92.00;;;;;;4978860;28;20033;-73
2022/04/02 03:57:39;;;;;;;0.38;0.00;;;25.50;91.70;;;;;;4975390;28;20531;-76
2022/04/02 04:00:09;;;;;;;0.60;0.00;;;25.60;91.20;;;;;;4977011;28;20060;-75
2022/04/02 04:02:37;;;;;;;0.00;0.00;;;25.50;91.70;;;;;;4980346;28;20511;-73
2022/04/02 04:05:06;;;;;;;0.03;0.00;;;25.70;91.70;;;;;;4971820;28;20066;-75
2022/04/02 04:07:34;;;;;;;0.10;0.00;;;25.80;90.90;;;;;;4986286;28;20659;-76
2022/04/02 04:10:01;;;;;;;0.00;0.00;;;26.10;91.40;;;;;;4992312;28;20045;-73
2022/04/02 04:12:29;;;;;;;0.10;0.00;;;25.90;90.90;;;;;;4995497;28;20105;-72
2022/04/02 04:14:56;;;;;;;0.20;0.10;;;25.70;91.20;;;;;;4982331;28;20093;-74
2022/04/02 04:17:24;;;;;;;0.00;0.00;;;25.60;91.50;;;;;;4975397;28;20046;-76
2022/04/02 04:19:51;;;;;;;1.08;0.03;;;25.50;91.70;;;;;;4986119;28;20058;-76
2022/04/02 04:22:20;;;;;;;0.82;0.17;;;25.40;91.50;;;;;;4979340;28;20489;-74
2022/04/02 04:24:47;;;;;;;0.98;0.20;;;25.20;91.20;;;;;;4983948;28;20049;-74
2022/04/02 04:27:15;;;;;;;0.75;0.15;;;24.90;91.80;;;;;;4974783;28;20027;-76
2022/04/02 04:29:42;;;;;;;2.15;0.22;;;24.70;92.00;;;;;;4976566;28;20046;-75
2022/04/02 04:32:10;;;;;;;1.77;0.25;;;24.90;92.00;;;;;;4977979;28;20046;-79
2022/04/02 04:34:39;;;;;;;1.30;0.10;;;25.40;91.80;;;;;;4995566;28;20023;-78
2022/04/02 04:37:08;;;;;;;0.65;0.30;;;25.70;91.00;;;;;;4974791;28;20556;-75
2022/04/02 04:39:37;;;;;;;0.50;0.10;;;25.90;91.10;;;;;;4975331;28;20035;-72
2022/04/02 04:42:04;;;;;;;1.00;0.32;;;25.90;90.90;;;;;;4977491;28;20086;-76
2022/04/02 04:44:32;;;;;;;1.20;0.13;;;25.70;91.10;;;;;;4975622;28;20023;-74
2022/04/02 04:46:59;;;;;;;0.15;0.15;;;25.50;90.60;;;;;;4984563;28;20560;-74
2022/04/02 04:49:26;;;;;;;0.20;0.10;;;25.20;90.80;;;;;;4990381;28;20043;-78
2022/04/02 04:51:54;;;;;;;0.10;0.00;;;25.00;91.50;;;;;;4988912;28;21906;-73
2022/04/02 04:54:21;;;;;;;0.28;0.08;;;24.70;91.30;;;;;;4975314;28;20030;-75
2022/04/02 04:56:48;;;;;;;0.55;0.00;;;24.60;91.80;;;;;;4975322;28;20053;-73
2022/04/02 04:59:16;;;;;;;0.00;0.00;;;24.40;91.90;;;;;;4985090;28;20161;-76
2022/04/02 05:01:43;;;;;;;0.40;0.00;;;24.30;91.50;;;;;;4976853;28;20059;-76
2022/04/02 05:04:11;;;;;;;0.10;0.08;;;24.30;92.10;;;;;;4994975;28;20030;-76
2022/04/02 05:06:38;;;;;;;0.55;0.10;;;24.20;92.00;;;;;;4983270;28;20122;-77
2022/04/02 05:09:07;;;;;;;1.38;0.60;;;24.20;92.20;;;;;;4990232;28;20277;-74
2022/04/02 05:11:35;;;;;;;0.90;0.30;;;24.40;92.10;;;;;;4978484;28;20034;-75
2022/04/02 05:14:02;;;;;;;0.00;0.00;;;24.70;92.00;;;;;;4980389;28;20027;-76
2022/04/02 05:16:30;;;;;;;0.93;0.10;;;24.70;91.40;;;;;;4975555;28;20045;-73
2022/04/02 05:18:58;;;;;;;0.40;0.10;;;24.80;91.40;;;;;;4972158;28;20181;-75
2022/04/02 05:21:25;;;;;;;0.00;0.00;;;24.70;92.00;;;;;;4973613;28;20109;-74
2022/04/02 05:23:52;;;;;;;0.03;0.00;;;24.70;91.70;;;;;;4990064;28;20084;-74
2022/04/02 05:26:19;;;;;;;0.60;0.00;;;24.60;91.80;;;;;;4991876;28;20027;-75
2022/04/02 05:28:47;;;;;;;0.22;0.00;;;24.50;91.70;;;;;;4975732;28;20126;-76
2022/04/02 05:31:14;;;;;;;0.98;0.10;;;24.30;91.90;;;;;;4984939;28;20061;-72
2022/04/02 05:33:42;;;;;;;1.17;0.63;;;24.20;92.10;;;;;;4978158;28;20066;-75
2022/04/02 05:36:09;;;;;;;0.52;0.00;;;24.30;91.90;;;;;;4974332;28;20030;-76
2022/04/02 05:38:37;;;;;;;0.25;0.00;;;24.20;91.60;;;;;;4976330;28;20049;-77
2022/04/02 05:41:04;;;;;;;0.47;0.10;;;24.20;91.70;;;;;;4980782;28;20030;-78
2022/04/02 05:43:32;;;;;;;0.10;0.10;;;24.10;92.30;;;;;;4979214;28;20482;-75
2022/04/02 05:45:59;;;;;;;0.32;0.00;;;24.00;92.70;;;;;;4972806;28;20039;-77
2022/04/02 05:48:27;;;;;;;3.30;0.22;;;23.90;92.50;;;;;;4983447;28;20027;-78
2022/04/02 05:50:55;;;;;;;0.75;0.20;;;24.10;92.80;;;;;;4977429;28;20512;-76
2022/04/02 05:53:26;;;;;;;0.32;0.20;;;24.30;92.50;;;;;;4978062;28;20042;-76
2022/04/02 05:55:54;;;;;;;1.02;0.00;;;24.40;91.90;;;;;;4990842;28;20112;-72
2022/04/02 05:58:21;;;;;;;0.13;0.13;;;24.40;91.70;;;;;;4972158;28;21268;-73
2022/04/02 06:00:50;;;;;;;0.40;0.10;;;24.20;91.70;;;;;;4973583;28;20026;-72
2022/04/02 06:03:20;;;;;;;0.03;0.00;;;24.10;91.90;;;;;;4987877;28;20030;-74
2022/04/02 06:05:49;;;;;;;0.60;0.00;;;24.10;92.10;;;;;;4987807;28;20033;-76
2022/04/02 06:08:17;;;;;;;0.30;0.20;;;24.10;91.70;;;;;;4980687;28;20042;-74
2022/04/02 06:10:45;;;;;;;0.00;0.00;;;24.10;91.90;;;;;;4976574;28;20026;-73
2022/04/02 06:13:13;;;;;;;0.20;0.15;;;24.10;91.90;;;;;;4972966;28;20080;-77
2022/04/02 06:15:40;;;;;;;0.10;0.05;;;23.90;92.00;;;;;;4972212;28;20027;-73
2022/04/02 06:18:08;;;;;;;0.00;0.00;;;23.80;92.00;;;;;;4979404;28;20030;-76
2022/04/02 06:20:35;;;;;;;0.63;0.03;;;23.60;92.10;;;;;;4982000;28;20049;-76
2022/04/02 06:23:03;;;;;;;0.00;0.00;;;23.60;92.30;;;;;;4974668;28;20015;-77
2022/04/02 06:25:30;;;;;;;0.98;0.13;;;23.60;92.70;;;;;;4987383;28;20038;-76
2022/04/02 06:27:57;;;;;;;0.63;0.00;;;23.70;92.40;;;;;;4983175;28;20019;-75
2022/04/02 06:30:25;;;;;;;0.20;0.10;;;23.80;92.70;;;;;;4977529;28;20030;-76
2022/04/02 06:32:52;;;;;;;0.15;0.00;;;23.90;92.90;;;;;;4984117;28;20054;-76
2022/04/02 06:35:19;;;;;;;1.42;0.10;;;23.90;92.20;;;;;;4992883;28;20023;-77
2022/04/02 06:37:50;;;;;;;0.40;0.05;;;23.80;92.20;;;;;;4979877;28;20081;-77
2022/04/02 06:40:18;;;;;;;0.38;0.10;;;23.70;92.70;;;;;;4983194;28;20034;-77
2022/04/02 06:42:46;;;;;;;0.82;0.10;;;23.60;92.80;;;;;;4984585;28;20377;-74
2022/04/02 06:45:14;;;;;;;0.20;0.05;;;23.40;92.90;;;;;;4992852;28;20042;-77
2022/04/02 06:47:42;;;;;;;1.05;0.10;;;23.30;92.80;;;;;;4985630;28;20026;-76
2022/04/02 06:50:14;;;;;;;0.28;0.00;;;23.20;92.80;;;;;;4976247;28;20145;-76
2022/04/02 06:52:42;;;;;;;0.17;0.00;;;23.20;93.20;;;;;;4967107;28;20030;-77
2022/04/02 06:55:15;;;;;;;0.50;0.10;;;23.10;93.10;;;;;;4977387;28;20405;-76
2022/04/02 06:57:44;;;;;;;0.65;0.15;;;23.20;93.70;;;;;;4977301;28;20030;-73
2022/04/02 07:00:13;;;;;;;0.38;0.10;;;23.10;93.50;;;;;;4977975;28;20045;-72
2022/04/02 07:02:40;;;;;;;0.70;0.38;;;23.00;93.70;;;;;;4978925;28;20026;-73
2022/04/02 07:05:08;;;;;;;0.43;0.43;;;22.80;93.50;;;;;;4983637;28;20030;-74
2022/04/02 07:07:36;;;;;;;0.20;0.10;;;22.60;93.70;;;;;;4980215;28;20428;-74
2022/04/02 07:10:06;;;;;;;0.10;0.10;;;22.30;94.00;;;;;;4982042;28;20053;-73
2022/04/02 07:12:34;;;;;;;0.10;0.00;;;22.10;94.30;;;;;;4973403;28;20061;-73
2022/04/02 07:15:03;;;;;;;0.20;0.20;;;21.90;94.60;;;;;;4972358;28;20062;-74
2022/04/02 07:17:31;;;;;;;0.80;0.10;;;21.80;94.80;;;;;;4981213;28;20026;-72
2022/04/02 07:20:00;;;;;;;0.28;0.05;;;21.80;94.80;;;;;;4977742;28;21523;-77
2022/04/02 07:22:28;;;;;;;0.55;0.03;;;21.60;94.80;;;;;;4968040;28;20030;-73
2022/04/02 07:24:57;;;;;;;0.15;0.00;;;21.50;94.80;;;;;;4973860;28;20031;-73
2022/04/02 07:27:30;;;;;;;0.32;0.10;;;21.40;94.90;;;;;;4968474;28;20474;-74
2022/04/02 07:29:58;;;;;;;0.30;0.03;;;21.30;95.10;;;;;;4972507;28;20061;-72
2022/04/02 07:32:25;;;;;;;0.93;0.10;;;21.30;95.30;;;;;;4973899;28;20049;-74
2022/04/02 07:34:53;;;;;;;0.35;0.22;;;21.20;95.40;;;;;;4986507;28;20529;-73
2022/04/02 07:37:34;;;;;;;0.47;0.10;;;21.10;95.50;;;;;;4971458;28;20059;-73
2022/04/02 07:40:06;;;;;;;0.10;0.00;;;21.00;95.50;;;;;;4976589;28;20444;-74
2022/04/02 07:42:53;;;;;;;0.40;0.10;;;20.90;95.70;;;;;;4983336;28;20114;-77
2022/04/02 07:45:27;;;;;;;0.40;0.20;;;20.70;96.10;;;;;;4981977;28;20520;-74
2022/04/02 07:47:58;;;;;;;1.63;0.13;;;20.70;96.50;;;;;;4988880;28;20038;-75
2022/04/02 07:50:27;;;;;;;0.13;0.10;;;20.50;96.60;;;;;;4980469;28;20051;-74
2022/04/02 07:52:56;;;;;;;1.05;0.30;;;20.40;96.60;;;;;;4975898;28;20118;-73
2022/04/02 07:55:25;;;;;;;1.08;0.10;;;20.30;96.60;;;;;;4976113;28;20045;-74
2022/04/02 07:58:03;;;;;;;0.25;0.10;;;20.20;96.90;;;;;;4983437;28;20031;-74
2022/04/02 08:00:33;;;;;;;0.77;0.60;;;20.10;97.00;;;;;;4976761;28;20512;-76
2022/04/02 08:03:01;;;;;;;0.38;0.13;;;20.00;97.10;;;;;;4988187;28;20026;-76
2022/04/02 08:05:29;;;;;;;0.52;0.25;;;19.90;97.30;;;;;;4984867;28;20031;-75
2022/04/02 08:07:57;;;;;;;0.43;0.20;;;19.90;97.70;;;;;;4980466;28;20767;-76
2022/04/02 08:10:28;;;;;;;0.30;0.10;;;19.80;97.40;;;;;;4971124;28;20584;-75
2022/04/02 08:12:58;;;;;;;0.30;0.17;;;19.70;97.50;;;;;;4970115;28;20026;-75
2022/04/02 08:15:26;;;;;;;0.30;0.30;;;19.70;97.60;;;;;;4972566;28;20042;-75
2022/04/02 08:17:55;;;;;;;0.57;0.13;;;19.60;97.60;;;;;;4971837;28;20030;-74
2022/04/02 08:20:25;;;;;;;0.35;0.10;;;19.60;97.60;;;;;;4988342;28;20030;-73
2022/04/02 08:22:56;;;;;;;0.80;0.20;;;19.50;97.80;;;;;;4981788;28;20030;-75
2022/04/02 08:25:23;;;;;;;1.35;0.30;;;19.40;98.00;;;;;;4980399;28;20412;-73
2022/04/02 08:28:11;;;;;;;1.00;0.30;;;19.40;98.10;;;;;;4976754;28;20418;-73
2022/04/02 08:31:14;;;;;;;0.90;0.47;;;19.30;98.20;;;;;;4978820;28;20090;-73
2022/04/02 08:34:16;;;;;;;0.65;0.32;;;19.30;98.10;;;;;;4960998;28;20057;-75
2022/04/02 08:36:54;;;;;;;3.53;0.60;;;19.20;98.30;;;;;;4976577;28;20027;-79
2022/04/02 08:39:49;;;;;;;0.30;0.20;;;19.10;98.40;;;;;;4984960;28;20035;-77
2022/04/02 08:42:52;;;;;;;0.30;0.10;;;19.10;98.50;;;;;;4975560;28;20031;-76
2022/04/02 08:45:30;;;;;;;0.35;0.20;;;19.00;98.60;;;;;;4974991;28;20043;-78
2022/04/02 08:48:25;;;;;;;1.23;0.45;;;18.90;98.70;;;;;;4988600;28;20548;-77
2022/04/02 08:51:10;;;;;;;0.28;0.22;;;18.90;98.80;;;;;;4994060;28;20029;-77
2022/04/02 08:54:02;;;;;;;0.90;0.40;;;18.80;98.80;;;;;;4991474;28;20467;-75
2022/04/02 08:56:37;;;;;;;0.60;0.30;;;18.70;98.90;;;;;;4989534;28;20026;-75
2022/04/02 08:59:06;;;;;;;0.45;0.20;;;18.70;99.10;;;;;;4974116;28;20074;-77
2022/04/02 09:01:59;;;;;;;0.38;0.10;;;18.70;99.00;;;;;;4975030;28;20033;-74
2022/04/02 09:04:57;;;;;;;0.38;0.20;;;18.60;99.00;;;;;;4993490;28;20035;-76
2022/04/02 09:08:00;;;;;;;0.55;0.25;;;18.60;99.00;;;;;;4977276;28;20033;-78
2022/04/02 09:11:10;;;;;;;0.50;0.28;;;18.60;98.90;;;;;;4985635;28;20087;-76
2022/04/02 09:13:56;;;;;;;0.25;0.20;;;18.50;99.00;;;;;;4979260;28;20531;-77
2022/04/02 09:16:44;;;;;;;0.38;0.15;;;18.50;99.10;;;;;;4985998;28;20042;-75
2022/04/02 09:19:49;;;;;;;0.40;0.20;;;18.50;99.10;;;;;;4976669;28;20046;-76
2022/04/02 09:22:39;;;;;;;0.10;0.05;;;18.40;99.10;;;;;;4978401;28;20133;-77
2022/04/02 09:25:43;;;;;;;0.55;0.20;;;18.40;99.20;;;;;;4975183;28;20035;-77
2022/04/02 09:28:22;;;;;;;0.50;0.20;;;18.30;99.30;;;;;;4976887;28;20027;-75
2022/04/02 09:31:26;;;;;;;0.70;0.30;;;18.30;99.50;;;;;;4972682;28;20031;-74
2022/04/02 09:34:20;;;;;;;1.05;0.70;;;18.30;99.70;;;;;;4974220;28;20031;-72
2022/04/02 09:37:28;;;;;;;0.95;0.40;;;18.20;99.80;;;;;;4975585;28;20113;-75
2022/04/02 09:40:10;;;;;;;0.47;0.10;;;18.20;99.90;;;;;;4981579;28;20725;-74
2022/04/02 09:42:44;;;;;;;0.40;0.15;;;18.10;99.80;;;;;;4972833;28;20058;-76
2022/04/02 09:45:16;;;;;;;0.10;0.10;;;18.00;99.90;;;;;;4973573;28;20031;-78
2022/04/02 09:48:08;;;;;;;0.20;0.10;;;18.00;99.90;;;;;;4989100;28;20030;-73
2022/04/02 09:50:35;;;;;;;0.30;0.10;;;17.90;99.90;;;;;;4985185;28;20077;-74
2022/04/02 09:53:16;;;;;;;0.10;0.10;;;17.90;99.90;;;;;;4989417;28;20030;-75
2022/04/02 09:56:11;;;;;;;0.98;0.65;;;17.90;99.90;;;;;;4992196;28;20088;-75
2022/04/02 09:58:41;;;;;;;0.80;0.47;;;17.90;99.90;;;;;;4971529;28;20046;-75
2022/04/02 10:01:31;;;;;;;0.95;0.40;;;17.80;99.90;;;;;;4981499;28;20026;-72
2022/04/02 10:04:02;;;;;;;0.80;0.50;;;17.70;99.90;;;;;;4987330;28;20112;-73
2022/04/02 10:06:41;;;;;;;1.67;0.40;;;17.80;99.90;;;;;;4977000;28;20089;-73
2022/04/02 10:09:12;;;;;;;0.25;0.20;;;17.80;99.90;;;;;;4991840;28;20034;-73
2022/04/02 10:11:55;;;;;;;0.20;0.20;;;17.90;99.90;;;;;;4985768;28;20023;-75
2022/04/02 10:14:24;;;;;;;1.15;0.32;;;17.90;99.90;;;;;;4992466;28;20030;-74
2022/04/02 10:16:55;;;;;;;0.30;0.25;;;17.90;99.90;;;;;;4984982;28;20022;-73
2022/04/02 10:19:34;;;;;;;0.55;0.10;;;17.90;99.90;;;;;;4981422;28;20049;-74
2022/04/02 10:22:10;;;;;;;0.00;0.00;;;17.90;99.90;;;;;;4974195;28;20018;-74
2022/04/02 10:24:49;;;;;;;0.20;0.08;;;17.90;99.90;;;;;;4976923;28;20389;-73
2022/04/02 10:27:36;;;;;;;0.10;0.00;;;17.80;99.90;;;;;;4973873;28;20085;-73
2022/04/02 10:30:03;;;;;;;0.75;0.10;;;17.80;99.90;;;;;;4981070;28;20030;-73
2022/04/02 10:32:45;;;;;;;0.73;0.10;;;17.80;99.90;;;;;;4979757;28;20133;-73
2022/04/02 10:35:14;;;;;;;0.47;0.43;;;17.80;99.90;;;;;;4986042;28;20023;-74
2022/04/02 10:38:10;;;;;;;0.77;0.70;;;17.70;99.90;;;;;;4988146;28;20373;-74
2022/04/02 10:40:53;;;;;;;0.60;0.43;;;17.70;99.90;;;;;;4953498;28;20401;-74
2022/04/02 10:43:31;;;;;;;2.30;0.40;;;17.60;99.90;;;;;;4974218;28;20084;-73
2022/04/02 10:46:01;;;;;;;1.25;0.30;;;17.60;99.90;;;;;;4975995;28;20042;-74
2022/04/02 10:48:41;;;;;;;1.85;0.60;;;17.50;99.90;;;;;;4982132;28;20472;-73
2022/04/02 10:51:10;;;;;;;1.17;0.52;;;17.50;99.90;;;;;;4974867;28;20113;-72
2022/04/02 10:53:44;;;;;;;0.90;0.47;;;17.50;99.90;;;;;;4972762;28;20090;-74
2022/04/02 10:56:21;;;;;;;1.30;0.40;;;17.50;99.90;;;;;;4976289;28;20034;-74
2022/04/02 10:58:49;;;;;;;0.85;0.60;;;17.40;99.90;;;;;;4973407;28;20049;-74
2022/04/02 11:01:21;;;;;;;1.23;0.50;;;17.40;99.90;;;;;;4969529;28;20441;-75
2022/04/02 11:03:56;;;;;;;0.75;0.30;;;17.30;99.90;;;;;;4972615;28;20061;-74
2022/04/02 11:06:46;;;;;;;0.40;0.30;;;17.10;99.90;;;;;;4978094;28;20026;-75
2022/04/02 11:09:36;;;;;;;1.50;0.40;;;17.00;99.90;;;;;;4986695;28;20049;-74
2022/04/02 11:12:09;;;;;;;0.93;0.50;;;16.80;99.90;;;;;;4976646;28;20089;-75
2022/04/02 11:14:41;;;;;;;0.85;0.50;;;16.70;99.90;;;;;;4976907;28;20043;-75
2022/04/02 11:17:25;;;;;;;2.70;0.50;;;16.70;99.90;;;;;;4977391;28;20117;-75
2022/04/02 11:19:56;;;;;;;0.60;0.40;;;16.60;99.90;;;;;;4984193;28;20043;-74
2022/04/02 11:22:30;;;;;;;0.30;0.30;;;16.60;99.90;;;;;;4975392;28;20036;-75
2022/04/02 11:25:21;;;;;;;0.82;0.40;;;16.50;99.90;;;;;;4979845;28;20105;-74
2022/04/02 11:27:54;;;;;;;2.95;1.20;;;16.50;99.90;;;;;;4973645;28;20067;-74
2022/04/02 11:30:33;;;;;;;1.30;0.32;;;16.40;99.90;;;;;;4974556;28;20563;-74
2022/04/02 11:33:20;;;;;;;1.00;0.65;;;16.30;99.90;;;;;;4983290;28;20050;-76
2022/04/02 11:35:58;;;;;;;2.60;0.85;;;16.20;99.90;;;;;;4989108;28;20035;-74
2022/04/02 11:38:34;;;;;;;0.90;0.50;;;16.10;99.90;;;;;;4978417;28;20046;-75
2022/04/02 11:41:20;;;;;;;;;;;16.10;99.90;;;;;;4971458;28;20757;-74
2022/04/02 11:43:51;;;;;;;1.13;0.93;;;16.00;99.90;;;;;;4991291;28;20308;-75
2022/04/02 11:46:21;;;;;;;0.82;0.60;;;16.00;99.90;;;;;;4980284;28;20284;-74
2022/04/02 11:48:57;;;;;;;2.78;0.63;;;15.90;99.90;;;;;;4974130;28;20030;-75
2022/04/02 11:51:29;;;;;;;0.60;0.45;;;15.80;99.90;;;;;;4968972;28;20031;-73
2022/04/02 11:54:15;;;;;;;1.38;0.50;;;15.80;99.90;;;;;;4985393;28;20035;-75
2022/04/02 11:56:47;;;;;;;1.27;0.47;;;15.70;99.90;;;;;;4991099;28;20033;-75
2022/04/02 11:59:19;;;;;;;0.73;0.40;;;15.70;99.90;;;;;;4988693;28;20043;-74
2022/04/02 12:01:50;;;;;;;1.42;0.73;;;15.70;99.90;;;;;;4975326;28;20267;-73
2022/04/02 12:04:25;;;;;;;3.60;1.25;;;15.70;99.90;;;;;;4974067;28;20183;-74
2022/04/02 12:07:06;;;;;;;2.03;1.00;;;15.60;99.90;;;;;;4970881;28;20030;-75
2022/04/02 12:09:33;;;;;;;1.98;1.30;;;15.60;99.90;;;;;;4972341;28;20045;-73
2022/04/02 12:12:06;;;;;;;2.67;1.10;;;15.60;99.90;;;;;;4988620;28;20034;-74
2022/04/02 12:14:38;;;;;;;2.65;1.00;;;15.60;99.90;;;;;;4991701;28;20026;-75
2022/04/02 12:17:11;;;;;;;1.58;0.80;;;15.50;99.90;;;;;;4970124;28;20779;-75
2022/04/02 12:19:40;;;;;;;1.92;0.82;;;15.50;99.90;;;;;;4970830;28;20501;-74
2022/04/02 12:22:41;;;;;;;2.78;1.75;;;15.50;99.90;;;;;;4978378;28;20026;-75
2022/04/02 12:25:13;;;;;;;2.67;0.57;;;15.40;99.90;;;;;;4950889;28;20584;-74
2022/04/02 12:27:51;;;;;;;1.20;0.70;;;15.40;99.90;;;;;;4972678;28;20757;-75
2022/04/02 12:30:23;;;;;;;2.13;1.02;;;15.30;99.90;;;;;;4989814;28;20031;-74
2022/04/02 12:32:51;;;;;;;1.70;0.90;;;15.30;99.90;;;;;;4992563;28;20126;-74
2022/04/02 12:35:28;;;;;;;1.23;1.00;;;15.30;99.90;;;;;;4974274;28;20043;-75
2022/04/02 12:38:02;;;;;;;3.30;1.42;;;15.30;99.90;;;;;;4972046;28;20054;-75
2022/04/02 12:40:31;;;;;;;3.95;1.70;;;15.30;99.90;;;;;;4992761;28;20060;-74
2022/04/02 12:43:07;;;;;;;3.80;2.03;;;15.30;99.90;;;;;;4980292;28;20557;-75
2022/04/02 12:45:36;;;;;;;6.68;2.92;;;15.30;99.90;;;;;;4985432;28;20485;-75
2022/04/02 12:48:17;;;;;;;2.97;1.85;;;15.20;99.90;;;;;;4990038;28;20030;-77
2022/04/02 12:51:00;;;;;;;3.45;1.50;;;15.20;99.90;;;;;;4994042;28;20173;-74
2022/04/02 12:53:48;;;;;;;2.28;1.10;;;15.10;99.90;;;;;;4991887;28;20034;-75
2022/04/02 12:56:23;;;;;;;2.88;1.08;;;15.10;99.90;;;;;;4973403;28;20058;-75
2022/04/02 12:58:53;;;;;;;3.15;1.23;;;15.10;99.90;;;;;;4993310;28;20476;-74
2022/04/02 13:01:28;;;;;;;1.65;0.68;;;15.00;99.90;;;;;;4990926;28;20100;-75
2022/04/02 13:04:10;;;;;;;1.70;1.00;;;14.90;99.90;;;;;;4974325;28;20090;-74
2022/04/02 13:06:44;;;;;;;2.03;0.75;;;14.90;99.90;;;;;;4975123;28;20034;-74
2022/04/02 13:09:20;;;;;;;2.33;0.95;;;14.90;99.90;;;;;;4974362;28;20027;-75
2022/04/02 13:11:57;;;;;;;2.20;0.60;;;14.80;99.90;;;;;;4973266;28;20507;-75
2022/04/02 13:14:38;;;;;;;1.33;1.08;;;14.80;99.90;;;;;;4979563;28;20378;-74
2022/04/02 13:17:20;;;;;;;2.08;1.00;;;14.80;99.90;;;;;;4979543;28;20055;-74
2022/04/02 13:22:46;;;;;;;;;;;14.80;99.90;;;;;;4982288;28;20115;-74